createdAt,value
2024-02-23T00:01:17.266Z,72.05
2024-02-23T00:06:20.188Z,72.28
2024-02-23T00:11:23.466Z,71.92
2024-02-23T00:16:30.806Z,72.01
2024-02-23T00:21:33.677Z,72.46
2024-02-23T00:26:36.268Z,71.92
2024-02-23T00:31:42.436Z,72.66
2024-02-23T00:36:46.337Z,72.30
2024-02-23T00:41:49.149Z,72.49
2024-02-23T00:46:53.092Z,72.21
2024-02-23T00:51:57.084Z,71.80
2024-02-23T00:56:59.951Z,72.06
2024-02-23T01:02:03.393Z,72.10
2024-02-23T01:07:06.373Z,71.89
2024-02-23T01:12:10.405Z,72.56
2024-02-23T01:17:14.940Z,72.63
2024-02-23T01:22:18.628Z,72.58
2024-02-23T01:27:25.122Z,71.78
2024-02-23T01:32:30.682Z,72.13
2024-02-23T01:37:34.168Z,72.33
2024-02-23T01:42:39.604Z,71.92
2024-02-23T01:47:44.893Z,72.00
2024-02-23T01:52:48.245Z,72.22
2024-02-23T01:57:51.696Z,72.14
2024-02-23T02:02:56.564Z,72.56
2024-02-23T02:08:02.413Z,72.49
2024-02-23T02:13:07.213Z,72.15
2024-02-23T02:18:11.394Z,72.16
2024-02-23T02:23:15.097Z,72.35
2024-02-23T02:28:19.039Z,71.81
2024-02-23T02:33:23.470Z,72.09
2024-02-23T02:38:26.405Z,72.53
2024-02-23T02:43:29.957Z,71.34
2024-02-23T02:48:38.167Z,71.07
2024-02-23T02:53:41.347Z,71.32
2024-02-23T02:58:45.560Z,71.10
2024-02-23T03:03:49.159Z,70.91
2024-02-23T03:08:51.955Z,70.58
2024-02-23T03:13:55.449Z,70.63
2024-02-23T03:19:04.490Z,69.33
2024-02-23T03:24:07.419Z,69.41
2024-02-23T03:29:12.871Z,69.56
2024-02-23T03:34:16.678Z,70.60
2024-02-23T03:39:20.034Z,69.43
2024-02-23T03:44:22.985Z,69.25
2024-02-23T03:49:27.603Z,70.10
2024-02-23T03:54:30.863Z,69.09
2024-02-23T03:59:34.881Z,69.88
2024-02-23T04:04:39.805Z,69.59
2024-02-23T04:09:42.922Z,68.54
2024-02-23T04:14:46.985Z,69.30
2024-02-23T04:19:49.707Z,68.60
2024-02-23T04:24:52.518Z,68.43
2024-02-23T04:29:56.755Z,68.10
2024-02-23T04:35:00.202Z,66.92
2024-02-23T04:40:03.952Z,67.05
2024-02-23T04:45:09.160Z,66.55
2024-02-23T04:50:11.943Z,65.69
2024-02-23T04:55:16.049Z,65.27
2024-02-23T05:00:21.178Z,65.21
2024-02-23T05:05:24.267Z,65.02
2024-02-23T05:10:27.013Z,64.34
2024-02-23T05:15:31.861Z,63.60
2024-02-23T05:20:35.119Z,63.29
2024-02-23T05:25:38.005Z,62.62
2024-02-23T05:30:42.407Z,62.65
2024-02-23T05:35:47.194Z,62.54
2024-02-23T05:40:50.241Z,62.53
2024-02-23T05:45:59.035Z,62.46
2024-02-23T05:51:02.135Z,62.87
2024-02-23T05:56:05.891Z,62.20
2024-02-23T06:01:10.381Z,62.34
2024-02-23T06:06:13.389Z,62.04
2024-02-23T06:11:17.059Z,61.68
2024-02-23T06:16:21.473Z,62.02
2024-02-23T06:21:24.384Z,62.43
2024-02-23T06:26:27.198Z,62.40
2024-02-23T06:31:32.682Z,63.36
2024-02-23T06:36:35.746Z,62.89
2024-02-23T06:41:43.896Z,62.93
2024-02-23T06:46:47.373Z,62.83
2024-02-23T06:51:50.259Z,63.03
2024-02-23T06:56:54.085Z,63.47
2024-02-23T07:01:58.804Z,62.62
2024-02-23T07:07:08.098Z,62.99
2024-02-23T07:12:13.116Z,62.74
2024-02-23T07:17:21.056Z,62.22
2024-02-23T07:22:24.788Z,61.39
2024-02-23T07:27:27.968Z,60.75
2024-02-23T07:32:32.928Z,60.64
2024-02-23T07:37:36.293Z,59.70
2024-02-23T07:42:39.228Z,58.66
2024-02-23T07:47:44.148Z,58.21
2024-02-23T07:52:47.611Z,57.80
2024-02-23T07:57:51.018Z,57.58
2024-02-23T08:02:58.624Z,57.50
2024-02-23T08:08:02.619Z,56.94
2024-02-23T08:13:08.377Z,57.15
2024-02-23T08:18:12.028Z,56.42
2024-02-23T08:23:17.082Z,56.71
2024-02-23T08:28:20.227Z,55.81
2024-02-23T08:33:24.942Z,55.42
2024-02-23T08:38:28.473Z,55.71
2024-02-23T08:43:31.494Z,55.47
2024-02-23T08:48:36.058Z,55.87
2024-02-23T08:53:39.548Z,55.75
2024-02-23T08:58:42.886Z,56.50
2024-02-23T09:03:47.110Z,55.99
2024-02-23T09:08:50.075Z,56.08
2024-02-23T09:13:53.420Z,55.46
2024-02-23T09:18:57.949Z,55.17
2024-02-23T09:24:01.258Z,55.76
2024-02-23T09:29:13.385Z,55.06
2024-02-23T09:34:18.039Z,54.88
2024-02-23T09:39:28.429Z,54.67
2024-02-23T09:44:36.104Z,55.18
2024-02-23T09:49:42.753Z,55.93
2024-02-23T09:54:46.062Z,55.64
2024-02-23T09:59:51.480Z,55.40
2024-02-23T10:04:55.937Z,54.85
2024-02-23T10:10:00.630Z,54.84
2024-02-23T10:15:06.063Z,55.12
2024-02-23T10:20:09.359Z,55.67
2024-02-23T10:25:12.274Z,56.67
2024-02-23T10:30:18.991Z,56.47
2024-02-23T10:35:23.432Z,57.21
2024-02-23T10:40:28.322Z,56.55
2024-02-23T10:45:32.964Z,56.22
2024-02-23T10:50:36.578Z,56.33
2024-02-23T10:55:40.131Z,56.57
2024-02-23T11:00:44.437Z,56.62
2024-02-23T11:05:51.008Z,57.29
2024-02-23T11:10:54.377Z,57.60
2024-02-23T11:16:04.788Z,56.93
2024-02-23T11:21:11.361Z,58.27
2024-02-23T11:26:14.907Z,59.18
2024-02-23T11:31:22.052Z,59.36
2024-02-23T11:36:31.873Z,59.70
2024-02-23T11:41:34.795Z,59.46
2024-02-23T11:46:38.819Z,59.89
2024-02-23T11:51:43.599Z,60.65
2024-02-23T11:56:49.178Z,60.56
2024-02-23T12:01:52.714Z,61.04
2024-02-23T12:06:57.277Z,60.55
2024-02-23T12:12:00.643Z,60.85
2024-02-23T12:17:05.439Z,61.63
2024-02-23T12:22:09.323Z,61.96
2024-02-23T12:27:13.071Z,62.15
2024-02-23T12:32:17.445Z,62.65
2024-02-23T12:37:21.660Z,62.55
2024-02-23T12:42:25.120Z,62.85
2024-02-23T12:47:29.317Z,62.98
2024-02-23T12:52:32.741Z,63.28
2024-02-23T12:57:36.155Z,62.88
2024-02-23T13:02:40.355Z,63.03
2024-02-23T13:07:43.804Z,63.49
2024-02-23T13:12:46.782Z,63.85
2024-02-23T13:17:51.030Z,63.60
2024-02-23T13:22:54.806Z,64.31
2024-02-23T13:28:01.300Z,64.38
2024-02-23T13:33:07.168Z,64.06
2024-02-23T13:38:10.611Z,64.22
2024-02-23T13:43:14.354Z,65.02
2024-02-23T13:48:20.763Z,64.66
2024-02-23T13:53:24.389Z,65.00
2024-02-23T13:58:29.988Z,64.75
2024-02-23T14:03:33.830Z,65.10
2024-02-23T14:08:38.900Z,65.13
2024-02-23T14:13:42.249Z,65.03
2024-02-23T14:18:46.383Z,64.65
2024-02-23T14:23:49.475Z,64.92
2024-02-23T14:28:52.559Z,64.55
2024-02-23T14:33:57.250Z,64.89
2024-02-23T14:39:00.317Z,64.44
2024-02-23T14:44:03.420Z,64.67
2024-02-23T14:49:07.320Z,65.15
2024-02-23T14:54:10.568Z,64.73
2024-02-23T14:59:13.665Z,64.82
2024-02-23T15:04:19.026Z,64.42
2024-02-23T15:09:22.067Z,64.54
2024-02-23T15:14:25.606Z,64.55
2024-02-23T15:19:29.363Z,64.22
2024-02-23T15:24:33.952Z,64.41
2024-02-23T15:29:37.271Z,64.12
2024-02-23T15:34:43.105Z,63.22
2024-02-23T15:39:48.968Z,64.04
2024-02-23T15:44:53.071Z,64.31
2024-02-23T15:50:16.665Z,63.87
2024-02-23T15:55:19.664Z,64.29
2024-02-23T16:00:23.724Z,64.66
2024-02-23T16:05:27.238Z,64.97
2024-02-23T16:10:31.018Z,64.81
2024-02-23T16:15:34.725Z,65.07
2024-02-23T16:20:43.973Z,65.46
2024-02-23T16:25:47.203Z,64.81
2024-02-23T16:30:53.033Z,65.13
2024-02-23T16:36:00.847Z,64.41
2024-02-23T16:41:04.422Z,65.32
2024-02-23T16:46:08.453Z,64.82
2024-02-23T16:51:11.650Z,65.03
2024-02-23T16:56:14.637Z,65.42
2024-02-23T17:01:19.057Z,65.47
2024-02-23T17:06:22.060Z,65.08
2024-02-23T17:11:26.017Z,64.82
2024-02-23T17:16:30.323Z,65.17
2024-02-23T17:21:33.262Z,64.84
2024-02-23T17:26:36.333Z,64.75
2024-02-23T17:31:40.287Z,65.67
2024-02-23T17:36:44.913Z,65.31
2024-02-23T17:41:47.941Z,65.58
2024-02-23T17:46:51.286Z,65.73
2024-02-23T17:51:57.438Z,65.14
2024-02-23T17:57:00.369Z,65.08
2024-02-23T18:02:03.602Z,65.84
2024-02-23T18:07:06.774Z,65.60
2024-02-23T18:12:10.000Z,66.27
2024-02-23T18:17:13.700Z,65.97
2024-02-23T18:22:17.281Z,66.08
2024-02-23T18:27:21.238Z,66.47
2024-02-23T18:32:24.461Z,66.79
2024-02-23T18:37:27.474Z,66.20
2024-02-23T18:42:30.300Z,66.93
2024-02-23T18:47:33.945Z,66.93
2024-02-23T18:52:37.820Z,66.46
2024-02-23T18:57:41.113Z,66.64
2024-02-23T19:02:48.348Z,66.98
2024-02-23T19:07:51.311Z,66.55
2024-02-23T19:12:54.412Z,66.28
2024-02-23T19:17:58.197Z,66.98
2024-02-23T19:23:02.025Z,66.14
2024-02-23T19:28:05.704Z,67.09
2024-02-23T19:33:09.602Z,66.91
2024-02-23T19:38:12.728Z,67.32
2024-02-23T19:43:15.712Z,67.17
2024-02-23T19:48:19.919Z,66.34
2024-02-23T19:53:22.887Z,66.27
2024-02-23T19:58:25.928Z,66.40
2024-02-23T20:03:29.428Z,66.23
2024-02-23T20:08:32.833Z,66.23
2024-02-23T20:13:36.818Z,66.08
2024-02-23T20:18:40.244Z,67.27
2024-02-23T20:23:43.414Z,66.25
2024-02-23T20:28:46.451Z,66.99
2024-02-23T20:33:50.474Z,67.02
2024-02-23T20:38:53.520Z,66.76
2024-02-23T20:43:56.534Z,66.60
2024-02-23T20:49:01.782Z,66.42
2024-02-23T20:54:05.574Z,67.12
2024-02-23T20:59:08.644Z,66.84
2024-02-23T21:04:12.545Z,66.43
2024-02-23T21:09:17.551Z,67.20
2024-02-23T21:14:20.395Z,66.82
2024-02-23T21:19:23.672Z,67.55
2024-02-23T21:24:26.678Z,67.69
2024-02-23T21:29:30.074Z,66.77
2024-02-23T21:34:33.408Z,67.64
2024-02-23T21:39:37.609Z,66.87
2024-02-23T21:44:41.221Z,66.92
2024-02-23T21:49:45.232Z,66.85
2024-02-23T21:54:48.734Z,66.87
2024-02-23T21:59:56.219Z,67.46
2024-02-23T22:04:59.313Z,67.32
2024-02-23T22:10:02.087Z,67.75
2024-02-23T22:15:06.332Z,68.52
2024-02-23T22:20:09.745Z,67.91
2024-02-23T22:25:15.058Z,67.58
2024-02-23T22:30:18.679Z,68.33
2024-02-23T22:35:24.723Z,68.64
2024-02-23T22:40:27.928Z,68.28
2024-02-23T22:45:32.135Z,68.78
2024-02-23T22:50:35.086Z,68.38
2024-02-23T22:55:37.986Z,68.42
2024-02-23T23:00:43.070Z,68.86
2024-02-23T23:05:46.415Z,68.69
2024-02-23T23:10:50.188Z,69.50
2024-02-23T23:15:53.365Z,69.59
2024-02-23T23:20:56.223Z,68.82
2024-02-23T23:25:59.155Z,69.08
2024-02-23T23:31:02.320Z,69.61
2024-02-23T23:36:05.675Z,69.73
2024-02-23T23:41:08.756Z,68.95
2024-02-23T23:46:12.087Z,69.20
2024-02-23T23:51:15.358Z,69.54
2024-02-23T23:56:18.864Z,68.74
